sensor_id;sensor_type;location;lat;lon;timestamp;P1;durP1;ratioP1;P2;durP2;ratioP2
37777;SDS011;23615;51.506;7.678;2024-01-11T00:01:36;16.50;;;12.13;;
37777;SDS011;23615;51.506;7.678;2024-01-11T00:04:02;17.63;;;12.10;;
37777;SDS011;23615;51.506;7.678;2024-01-11T00:06:27;19.03;;;13.03;;
37777;SDS011;23615;51.506;7.678;2024-01-11T00:08:52;17.57;;;12.13;;
37777;SDS011;23615;51.506;7.678;2024-01-11T00:11:18;17.17;;;12.55;;
37777;SDS011;23615;51.506;7.678;2024-01-11T00:13:44;19.87;;;13.07;;
37777;SDS011;23615;51.506;7.678;2024-01-11T00:16:09;20.70;;;14.33;;
37777;SDS011;23615;51.506;7.678;2024-01-11T00:18:34;19.90;;;14.48;;
37777;SDS011;23615;51.506;7.678;2024-01-11T00:21:00;19.25;;;13.10;;
37777;SDS011;23615;51.506;7.678;2024-01-11T00:23:25;20.50;;;13.87;;
37777;SDS011;23615;51.506;7.678;2024-01-11T00:25:51;26.40;;;16.33;;
37777;SDS011;23615;51.506;7.678;2024-01-11T00:28:16;24.70;;;16.23;;
37777;SDS011;23615;51.506;7.678;2024-01-11T00:30:41;22.93;;;15.80;;
37777;SDS011;23615;51.506;7.678;2024-01-11T00:33:07;21.88;;;14.18;;
37777;SDS011;23615;51.506;7.678;2024-01-11T00:35:33;20.13;;;13.37;;
37777;SDS011;23615;51.506;7.678;2024-01-11T00:37:58;20.47;;;12.77;;
37777;SDS011;23615;51.506;7.678;2024-01-11T00:40:23;18.33;;;12.87;;
37777;SDS011;23615;51.506;7.678;2024-01-11T00:42:49;20.48;;;13.88;;
37777;SDS011;23615;51.506;7.678;2024-01-11T00:45:14;21.70;;;13.87;;
37777;SDS011;23615;51.506;7.678;2024-01-11T00:47:39;21.97;;;14.77;;
37777;SDS011;23615;51.506;7.678;2024-01-11T00:50:05;21.33;;;14.87;;
37777;SDS011;23615;51.506;7.678;2024-01-11T00:52:30;22.55;;;15.30;;
37777;SDS011;23615;51.506;7.678;2024-01-11T00:54:56;21.67;;;15.50;;
37777;SDS011;23615;51.506;7.678;2024-01-11T00:57:21;21.07;;;13.80;;
37777;SDS011;23615;51.506;7.678;2024-01-11T00:59:46;19.97;;;13.93;;
37777;SDS011;23615;51.506;7.678;2024-01-11T01:02:11;20.93;;;13.73;;
37777;SDS011;23615;51.506;7.678;2024-01-11T01:04:37;18.90;;;12.60;;
37777;SDS011;23615;51.506;7.678;2024-01-11T01:07:04;21.13;;;13.15;;
37777;SDS011;23615;51.506;7.678;2024-01-11T01:09:29;18.63;;;13.03;;
37777;SDS011;23615;51.506;7.678;2024-01-11T01:11:55;20.27;;;13.27;;
37777;SDS011;23615;51.506;7.678;2024-01-11T01:14:20;19.43;;;13.33;;
37777;SDS011;23615;51.506;7.678;2024-01-11T01:16:46;18.83;;;13.37;;
37777;SDS011;23615;51.506;7.678;2024-01-11T01:19:11;20.50;;;14.83;;
37777;SDS011;23615;51.506;7.678;2024-01-11T01:21:36;21.40;;;14.53;;
37777;SDS011;23615;51.506;7.678;2024-01-11T01:24:02;22.85;;;14.52;;
37777;SDS011;23615;51.506;7.678;2024-01-11T01:26:28;21.47;;;14.50;;
37777;SDS011;23615;51.506;7.678;2024-01-11T01:28:53;21.42;;;14.30;;
37777;SDS011;23615;51.506;7.678;2024-01-11T01:31:19;21.10;;;14.87;;
37777;SDS011;23615;51.506;7.678;2024-01-11T01:33:46;25.88;;;16.55;;
37777;SDS011;23615;51.506;7.678;2024-01-11T01:36:11;25.83;;;16.53;;
37777;SDS011;23615;51.506;7.678;2024-01-11T01:38:37;27.17;;;16.80;;
37777;SDS011;23615;51.506;7.678;2024-01-11T01:41:02;21.45;;;14.75;;
37777;SDS011;23615;51.506;7.678;2024-01-11T01:43:27;22.97;;;14.50;;
37777;SDS011;23615;51.506;7.678;2024-01-11T01:45:53;21.53;;;15.00;;
37777;SDS011;23615;51.506;7.678;2024-01-11T01:48:19;24.67;;;15.60;;
37777;SDS011;23615;51.506;7.678;2024-01-11T01:50:44;21.50;;;14.95;;
37777;SDS011;23615;51.506;7.678;2024-01-11T01:53:16;21.02;;;15.13;;
37777;SDS011;23615;51.506;7.678;2024-01-11T01:55:43;19.40;;;14.63;;
37777;SDS011;23615;51.506;7.678;2024-01-11T01:58:08;21.27;;;14.80;;
37777;SDS011;23615;51.506;7.678;2024-01-11T02:00:34;19.73;;;14.40;;
37777;SDS011;23615;51.506;7.678;2024-01-11T02:02:59;20.23;;;14.87;;
37777;SDS011;23615;51.506;7.678;2024-01-11T02:05:25;21.92;;;14.38;;
37777;SDS011;23615;51.506;7.678;2024-01-11T02:07:50;20.03;;;14.57;;
37777;SDS011;23615;51.506;7.678;2024-01-11T02:10:16;20.80;;;14.55;;
37777;SDS011;23615;51.506;7.678;2024-01-11T02:12:42;19.90;;;13.57;;
37777;SDS011;23615;51.506;7.678;2024-01-11T02:15:08;19.63;;;13.48;;
37777;SDS011;23615;51.506;7.678;2024-01-11T02:17:34;20.13;;;14.25;;
37777;SDS011;23615;51.506;7.678;2024-01-11T02:19:59;19.50;;;13.60;;
37777;SDS011;23615;51.506;7.678;2024-01-11T02:22:28;23.20;;;14.27;;
37777;SDS011;23615;51.506;7.678;2024-01-11T02:24:57;20.05;;;13.95;;
37777;SDS011;23615;51.506;7.678;2024-01-11T02:27:23;22.88;;;14.32;;
37777;SDS011;23615;51.506;7.678;2024-01-11T02:29:48;20.57;;;13.70;;
37777;SDS011;23615;51.506;7.678;2024-01-11T02:32:13;19.30;;;13.93;;
37777;SDS011;23615;51.506;7.678;2024-01-11T02:34:39;20.10;;;13.70;;
37777;SDS011;23615;51.506;7.678;2024-01-11T02:37:05;18.15;;;12.57;;
37777;SDS011;23615;51.506;7.678;2024-01-11T02:39:31;19.10;;;13.02;;
37777;SDS011;23615;51.506;7.678;2024-01-11T02:41:56;19.97;;;13.00;;
37777;SDS011;23615;51.506;7.678;2024-01-11T02:44:23;20.50;;;13.57;;
37777;SDS011;23615;51.506;7.678;2024-01-11T02:46:48;17.90;;;13.00;;
37777;SDS011;23615;51.506;7.678;2024-01-11T02:49:14;19.93;;;13.70;;
37777;SDS011;23615;51.506;7.678;2024-01-11T02:51:40;21.60;;;15.10;;
37777;SDS011;23615;51.506;7.678;2024-01-11T02:54:05;21.10;;;14.37;;
37777;SDS011;23615;51.506;7.678;2024-01-11T02:56:30;21.27;;;14.23;;
37777;SDS011;23615;51.506;7.678;2024-01-11T02:58:55;18.20;;;13.20;;
37777;SDS011;23615;51.506;7.678;2024-01-11T03:01:21;20.80;;;14.30;;
37777;SDS011;23615;51.506;7.678;2024-01-11T03:03:46;20.03;;;13.50;;
37777;SDS011;23615;51.506;7.678;2024-01-11T03:06:11;20.97;;;14.17;;
37777;SDS011;23615;51.506;7.678;2024-01-11T03:08:37;19.13;;;13.63;;
37777;SDS011;23615;51.506;7.678;2024-01-11T03:11:02;22.07;;;14.33;;
37777;SDS011;23615;51.506;7.678;2024-01-11T03:13:28;25.30;;;16.57;;
37777;SDS011;23615;51.506;7.678;2024-01-11T03:15:53;24.47;;;16.50;;
37777;SDS011;23615;51.506;7.678;2024-01-11T03:18:18;20.70;;;15.07;;
37777;SDS011;23615;51.506;7.678;2024-01-11T03:20:43;22.37;;;14.30;;
37777;SDS011;23615;51.506;7.678;2024-01-11T03:23:09;20.33;;;13.57;;
37777;SDS011;23615;51.506;7.678;2024-01-11T03:25:34;19.52;;;13.75;;
37777;SDS011;23615;51.506;7.678;2024-01-11T03:27:59;22.17;;;13.13;;
37777;SDS011;23615;51.506;7.678;2024-01-11T03:30:25;23.40;;;16.03;;
37777;SDS011;23615;51.506;7.678;2024-01-11T03:32:50;23.03;;;16.00;;
37777;SDS011;23615;51.506;7.678;2024-01-11T03:35:17;22.80;;;14.82;;
37777;SDS011;23615;51.506;7.678;2024-01-11T03:37:44;21.50;;;14.25;;
37777;SDS011;23615;51.506;7.678;2024-01-11T03:40:09;25.58;;;17.33;;
37777;SDS011;23615;51.506;7.678;2024-01-11T03:42:35;24.83;;;16.93;;
37777;SDS011;23615;51.506;7.678;2024-01-11T03:45:00;24.73;;;15.23;;
37777;SDS011;23615;51.506;7.678;2024-01-11T03:47:25;25.40;;;17.33;;
37777;SDS011;23615;51.506;7.678;2024-01-11T03:49:51;23.67;;;16.23;;
37777;SDS011;23615;51.506;7.678;2024-01-11T03:52:16;23.08;;;15.13;;
37777;SDS011;23615;51.506;7.678;2024-01-11T03:54:41;24.83;;;17.55;;
37777;SDS011;23615;51.506;7.678;2024-01-11T03:57:06;21.53;;;14.90;;
37777;SDS011;23615;51.506;7.678;2024-01-11T03:59:32;22.50;;;15.40;;
37777;SDS011;23615;51.506;7.678;2024-01-11T04:01:57;23.07;;;14.47;;
37777;SDS011;23615;51.506;7.678;2024-01-11T04:04:24;24.03;;;14.97;;
37777;SDS011;23615;51.506;7.678;2024-01-11T04:06:49;22.10;;;15.32;;
37777;SDS011;23615;51.506;7.678;2024-01-11T04:09:16;23.10;;;15.40;;
37777;SDS011;23615;51.506;7.678;2024-01-11T04:11:41;27.17;;;19.13;;
37777;SDS011;23615;51.506;7.678;2024-01-11T04:14:06;29.13;;;18.50;;
37777;SDS011;23615;51.506;7.678;2024-01-11T04:16:32;24.20;;;17.07;;
37777;SDS011;23615;51.506;7.678;2024-01-11T04:18:57;24.63;;;15.70;;
37777;SDS011;23615;51.506;7.678;2024-01-11T04:21:23;24.03;;;16.23;;
37777;SDS011;23615;51.506;7.678;2024-01-11T04:23:49;27.25;;;18.42;;
37777;SDS011;23615;51.506;7.678;2024-01-11T04:26:15;26.67;;;16.90;;
37777;SDS011;23615;51.506;7.678;2024-01-11T04:28:41;24.10;;;15.98;;
37777;SDS011;23615;51.506;7.678;2024-01-11T04:31:10;25.53;;;16.10;;
37777;SDS011;23615;51.506;7.678;2024-01-11T04:33:35;27.50;;;18.10;;
37777;SDS011;23615;51.506;7.678;2024-01-11T04:36:00;22.17;;;15.57;;
37777;SDS011;23615;51.506;7.678;2024-01-11T04:38:25;25.10;;;16.97;;
37777;SDS011;23615;51.506;7.678;2024-01-11T04:40:51;24.10;;;16.20;;
37777;SDS011;23615;51.506;7.678;2024-01-11T04:43:16;24.10;;;15.43;;
37777;SDS011;23615;51.506;7.678;2024-01-11T04:45:41;23.80;;;15.00;;
37777;SDS011;23615;51.506;7.678;2024-01-11T04:48:07;22.47;;;14.73;;
37777;SDS011;23615;51.506;7.678;2024-01-11T04:50:32;21.33;;;15.47;;
37777;SDS011;23615;51.506;7.678;2024-01-11T04:52:57;24.27;;;15.70;;
37777;SDS011;23615;51.506;7.678;2024-01-11T04:55:22;28.35;;;16.00;;
37777;SDS011;23615;51.506;7.678;2024-01-11T04:57:48;23.07;;;14.93;;
37777;SDS011;23615;51.506;7.678;2024-01-11T05:00:13;24.40;;;15.20;;
37777;SDS011;23615;51.506;7.678;2024-01-11T05:02:39;19.97;;;14.43;;
37777;SDS011;23615;51.506;7.678;2024-01-11T05:05:04;21.13;;;14.63;;
37777;SDS011;23615;51.506;7.678;2024-01-11T05:07:29;23.13;;;14.57;;
37777;SDS011;23615;51.506;7.678;2024-01-11T05:09:55;20.25;;;13.75;;
37777;SDS011;23615;51.506;7.678;2024-01-11T05:12:20;19.60;;;14.20;;
37777;SDS011;23615;51.506;7.678;2024-01-11T05:14:45;27.33;;;17.87;;
37777;SDS011;23615;51.506;7.678;2024-01-11T05:17:11;20.10;;;13.67;;
37777;SDS011;23615;51.506;7.678;2024-01-11T05:19:36;19.27;;;13.40;;
37777;SDS011;23615;51.506;7.678;2024-01-11T05:22:01;21.47;;;13.70;;
37777;SDS011;23615;51.506;7.678;2024-01-11T05:24:27;25.02;;;16.63;;
37777;SDS011;23615;51.506;7.678;2024-01-11T05:26:52;21.43;;;15.27;;
37777;SDS011;23615;51.506;7.678;2024-01-11T05:29:17;20.93;;;14.37;;
37777;SDS011;23615;51.506;7.678;2024-01-11T05:31:43;23.77;;;15.73;;
37777;SDS011;23615;51.506;7.678;2024-01-11T05:34:08;19.47;;;14.70;;
37777;SDS011;23615;51.506;7.678;2024-01-11T05:36:37;20.73;;;14.07;;
37777;SDS011;23615;51.506;7.678;2024-01-11T05:39:02;21.80;;;14.07;;
37777;SDS011;23615;51.506;7.678;2024-01-11T05:41:28;24.87;;;17.17;;
37777;SDS011;23615;51.506;7.678;2024-01-11T05:43:53;24.70;;;16.63;;
37777;SDS011;23615;51.506;7.678;2024-01-11T05:46:19;22.40;;;16.17;;
37777;SDS011;23615;51.506;7.678;2024-01-11T05:48:44;26.33;;;17.00;;
37777;SDS011;23615;51.506;7.678;2024-01-11T05:51:10;22.77;;;16.43;;
37777;SDS011;23615;51.506;7.678;2024-01-11T05:53:35;22.10;;;15.33;;
37777;SDS011;23615;51.506;7.678;2024-01-11T05:56:01;23.20;;;15.23;;
37777;SDS011;23615;51.506;7.678;2024-01-11T05:58:26;23.63;;;15.40;;
37777;SDS011;23615;51.506;7.678;2024-01-11T06:00:52;21.73;;;15.17;;
37777;SDS011;23615;51.506;7.678;2024-01-11T06:03:17;23.57;;;16.70;;
37777;SDS011;23615;51.506;7.678;2024-01-11T06:05:42;24.43;;;17.50;;
37777;SDS011;23615;51.506;7.678;2024-01-11T06:08:07;28.27;;;17.93;;
37777;SDS011;23615;51.506;7.678;2024-01-11T06:10:33;23.30;;;16.17;;
37777;SDS011;23615;51.506;7.678;2024-01-11T06:12:58;24.08;;;15.82;;
37777;SDS011;23615;51.506;7.678;2024-01-11T06:15:24;26.00;;;16.20;;
37777;SDS011;23615;51.506;7.678;2024-01-11T06:17:49;26.27;;;17.90;;
37777;SDS011;23615;51.506;7.678;2024-01-11T06:20:14;25.10;;;17.43;;
37777;SDS011;23615;51.506;7.678;2024-01-11T06:22:40;24.90;;;16.50;;
37777;SDS011;23615;51.506;7.678;2024-01-11T06:25:05;22.17;;;16.25;;
37777;SDS011;23615;51.506;7.678;2024-01-11T06:27:31;23.23;;;16.03;;
37777;SDS011;23615;51.506;7.678;2024-01-11T06:29:56;22.57;;;15.17;;
37777;SDS011;23615;51.506;7.678;2024-01-11T06:32:21;19.20;;;14.47;;
37777;SDS011;23615;51.506;7.678;2024-01-11T06:34:47;19.77;;;14.40;;
37777;SDS011;23615;51.506;7.678;2024-01-11T06:37:12;23.88;;;16.17;;
37777;SDS011;23615;51.506;7.678;2024-01-11T06:39:38;26.10;;;17.37;;
37777;SDS011;23615;51.506;7.678;2024-01-11T06:42:03;26.97;;;18.20;;
37777;SDS011;23615;51.506;7.678;2024-01-11T06:44:29;27.38;;;18.67;;
37777;SDS011;23615;51.506;7.678;2024-01-11T06:46:55;22.55;;;16.02;;
37777;SDS011;23615;51.506;7.678;2024-01-11T06:49:21;22.70;;;14.68;;
37777;SDS011;23615;51.506;7.678;2024-01-11T06:51:46;21.05;;;15.13;;
37777;SDS011;23615;51.506;7.678;2024-01-11T06:54:12;19.87;;;13.93;;
37777;SDS011;23615;51.506;7.678;2024-01-11T06:56:37;20.67;;;14.50;;
37777;SDS011;23615;51.506;7.678;2024-01-11T06:59:02;21.40;;;14.90;;
37777;SDS011;23615;51.506;7.678;2024-01-11T07:01:28;21.20;;;14.93;;
37777;SDS011;23615;51.506;7.678;2024-01-11T07:03:53;23.00;;;16.10;;
37777;SDS011;23615;51.506;7.678;2024-01-11T07:06:18;23.07;;;15.37;;
37777;SDS011;23615;51.506;7.678;2024-01-11T07:08:44;23.33;;;16.20;;
37777;SDS011;23615;51.506;7.678;2024-01-11T07:11:09;21.13;;;13.90;;
37777;SDS011;23615;51.506;7.678;2024-01-11T07:13:34;19.00;;;13.63;;
37777;SDS011;23615;51.506;7.678;2024-01-11T07:16:00;21.98;;;15.13;;
37777;SDS011;23615;51.506;7.678;2024-01-11T07:18:28;23.38;;;15.95;;
37777;SDS011;23615;51.506;7.678;2024-01-11T07:20:53;25.47;;;16.47;;
37777;SDS011;23615;51.506;7.678;2024-01-11T07:23:21;22.47;;;16.07;;
37777;SDS011;23615;51.506;7.678;2024-01-11T07:25:47;20.77;;;14.40;;
37777;SDS011;23615;51.506;7.678;2024-01-11T07:28:12;20.17;;;14.60;;
37777;SDS011;23615;51.506;7.678;2024-01-11T07:30:37;19.70;;;13.87;;
37777;SDS011;23615;51.506;7.678;2024-01-11T07:33:03;22.40;;;15.40;;
37777;SDS011;23615;51.506;7.678;2024-01-11T07:35:29;21.70;;;15.10;;
37777;SDS011;23615;51.506;7.678;2024-01-11T07:37:54;22.40;;;16.13;;
37777;SDS011;23615;51.506;7.678;2024-01-11T07:40:21;21.45;;;15.15;;
37777;SDS011;23615;51.506;7.678;2024-01-11T07:42:46;20.53;;;14.70;;
37777;SDS011;23615;51.506;7.678;2024-01-11T07:45:12;23.67;;;15.10;;
37777;SDS011;23615;51.506;7.678;2024-01-11T07:47:37;23.42;;;16.15;;
37777;SDS011;23615;51.506;7.678;2024-01-11T07:50:04;22.83;;;15.17;;
37777;SDS011;23615;51.506;7.678;2024-01-11T07:52:31;20.98;;;15.10;;
37777;SDS011;23615;51.506;7.678;2024-01-11T07:54:57;20.15;;;15.02;;
37777;SDS011;23615;51.506;7.678;2024-01-11T07:57:25;26.65;;;18.95;;
37777;SDS011;23615;51.506;7.678;2024-01-11T07:59:50;27.87;;;18.03;;
37777;SDS011;23615;51.506;7.678;2024-01-11T08:02:15;24.77;;;16.57;;
37777;SDS011;23615;51.506;7.678;2024-01-11T08:04:41;24.87;;;16.53;;
37777;SDS011;23615;51.506;7.678;2024-01-11T08:07:06;21.43;;;15.47;;
37777;SDS011;23615;51.506;7.678;2024-01-11T08:09:31;21.92;;;14.98;;
37777;SDS011;23615;51.506;7.678;2024-01-11T08:11:57;18.53;;;13.67;;
37777;SDS011;23615;51.506;7.678;2024-01-11T08:14:22;18.37;;;13.30;;
37777;SDS011;23615;51.506;7.678;2024-01-11T08:16:47;20.17;;;13.47;;
37777;SDS011;23615;51.506;7.678;2024-01-11T08:19:13;20.07;;;13.10;;
37777;SDS011;23615;51.506;7.678;2024-01-11T08:21:41;20.23;;;13.27;;
37777;SDS011;23615;51.506;7.678;2024-01-11T08:24:07;20.20;;;14.57;;
37777;SDS011;23615;51.506;7.678;2024-01-11T08:26:33;20.05;;;14.55;;
37777;SDS011;23615;51.506;7.678;2024-01-11T08:28:59;17.70;;;13.23;;
37777;SDS011;23615;51.506;7.678;2024-01-11T08:31:24;18.53;;;12.67;;
37777;SDS011;23615;51.506;7.678;2024-01-11T08:33:49;20.40;;;13.90;;
37777;SDS011;23615;51.506;7.678;2024-01-11T08:36:15;22.38;;;14.00;;
37777;SDS011;23615;51.506;7.678;2024-01-11T08:38:41;19.97;;;13.83;;
37777;SDS011;23615;51.506;7.678;2024-01-11T08:41:06;18.23;;;13.17;;
37777;SDS011;23615;51.506;7.678;2024-01-11T08:43:31;18.27;;;12.57;;
37777;SDS011;23615;51.506;7.678;2024-01-11T08:45:57;20.37;;;13.63;;
37777;SDS011;23615;51.506;7.678;2024-01-11T08:48:22;21.35;;;14.18;;
37777;SDS011;23615;51.506;7.678;2024-01-11T08:50:47;22.50;;;14.87;;
37777;SDS011;23615;51.506;7.678;2024-01-11T08:53:13;20.47;;;14.33;;
37777;SDS011;23615;51.506;7.678;2024-01-11T08:55:38;19.50;;;13.03;;
37777;SDS011;23615;51.506;7.678;2024-01-11T08:58:03;20.03;;;13.50;;
37777;SDS011;23615;51.506;7.678;2024-01-11T09:00:29;21.70;;;14.63;;
37777;SDS011;23615;51.506;7.678;2024-01-11T09:02:54;19.33;;;14.18;;
37777;SDS011;23615;51.506;7.678;2024-01-11T09:05:20;20.83;;;14.57;;
37777;SDS011;23615;51.506;7.678;2024-01-11T09:07:46;24.40;;;16.85;;
37777;SDS011;23615;51.506;7.678;2024-01-11T09:10:12;26.52;;;17.23;;
37777;SDS011;23615;51.506;7.678;2024-01-11T09:12:37;30.07;;;20.70;;
37777;SDS011;23615;51.506;7.678;2024-01-11T09:15:03;31.17;;;20.60;;
37777;SDS011;23615;51.506;7.678;2024-01-11T09:17:29;34.70;;;22.87;;
37777;SDS011;23615;51.506;7.678;2024-01-11T09:19:54;37.07;;;24.67;;
37777;SDS011;23615;51.506;7.678;2024-01-11T09:22:20;31.48;;;21.20;;
37777;SDS011;23615;51.506;7.678;2024-01-11T09:24:45;30.33;;;22.33;;
37777;SDS011;23615;51.506;7.678;2024-01-11T09:27:10;30.53;;;22.07;;
37777;SDS011;23615;51.506;7.678;2024-01-11T09:29:35;33.97;;;22.73;;
37777;SDS011;23615;51.506;7.678;2024-01-11T09:32:01;35.80;;;23.57;;
37777;SDS011;23615;51.506;7.678;2024-01-11T09:34:26;36.13;;;23.93;;
37777;SDS011;23615;51.506;7.678;2024-01-11T09:36:52;33.78;;;22.27;;
37777;SDS011;23615;51.506;7.678;2024-01-11T09:39:17;31.13;;;21.83;;
37777;SDS011;23615;51.506;7.678;2024-01-11T09:41:46;30.23;;;21.55;;
37777;SDS011;23615;51.506;7.678;2024-01-11T09:44:21;30.10;;;21.42;;
37777;SDS011;23615;51.506;7.678;2024-01-11T09:46:47;31.60;;;20.77;;
37777;SDS011;23615;51.506;7.678;2024-01-11T09:49:13;30.00;;;21.20;;
37777;SDS011;23615;51.506;7.678;2024-01-11T09:51:40;32.88;;;22.17;;
37777;SDS011;23615;51.506;7.678;2024-01-11T09:54:08;33.08;;;23.52;;
37777;SDS011;23615;51.506;7.678;2024-01-11T09:56:35;29.42;;;21.88;;
37777;SDS011;23615;51.506;7.678;2024-01-11T09:59:01;32.70;;;22.67;;
37777;SDS011;23615;51.506;7.678;2024-01-11T10:01:31;33.92;;;24.30;;
37777;SDS011;23615;51.506;7.678;2024-01-11T10:03:56;33.87;;;22.97;;
37777;SDS011;23615;51.506;7.678;2024-01-11T10:06:21;32.77;;;23.13;;
37777;SDS011;23615;51.506;7.678;2024-01-11T10:08:50;34.67;;;24.60;;
37777;SDS011;23615;51.506;7.678;2024-01-11T10:11:16;36.53;;;25.93;;
37777;SDS011;23615;51.506;7.678;2024-01-11T10:13:41;37.63;;;25.37;;
37777;SDS011;23615;51.506;7.678;2024-01-11T10:16:10;33.97;;;23.63;;
37777;SDS011;23615;51.506;7.678;2024-01-11T10:18:40;35.30;;;24.48;;
37777;SDS011;23615;51.506;7.678;2024-01-11T10:21:06;39.07;;;24.53;;
37777;SDS011;23615;51.506;7.678;2024-01-11T10:23:35;33.10;;;21.10;;
37777;SDS011;23615;51.506;7.678;2024-01-11T10:26:01;35.80;;;23.48;;
37777;SDS011;23615;51.506;7.678;2024-01-11T10:28:27;36.33;;;23.38;;
37777;SDS011;23615;51.506;7.678;2024-01-11T10:30:53;33.95;;;23.30;;
37777;SDS011;23615;51.506;7.678;2024-01-11T10:33:19;37.25;;;26.30;;
37777;SDS011;23615;51.506;7.678;2024-01-11T10:35:46;38.63;;;24.20;;
37777;SDS011;23615;51.506;7.678;2024-01-11T10:38:13;35.28;;;23.90;;
37777;SDS011;23615;51.506;7.678;2024-01-11T10:40:40;33.58;;;22.45;;
37777;SDS011;23615;51.506;7.678;2024-01-11T10:43:07;30.23;;;20.27;;
37777;SDS011;23615;51.506;7.678;2024-01-11T10:45:38;32.90;;;21.30;;
37777;SDS011;23615;51.506;7.678;2024-01-11T10:48:06;30.55;;;21.20;;
37777;SDS011;23615;51.506;7.678;2024-01-11T10:50:37;30.70;;;21.08;;
37777;SDS011;23615;51.506;7.678;2024-01-11T10:56:06;32.90;;;22.17;;
37777;SDS011;23615;51.506;7.678;2024-01-11T10:58:33;31.80;;;21.98;;
37777;SDS011;23615;51.506;7.678;2024-01-11T11:01:00;28.88;;;19.77;;
37777;SDS011;23615;51.506;7.678;2024-01-11T11:03:27;36.83;;;24.63;;
37777;SDS011;23615;51.506;7.678;2024-01-11T11:05:53;32.20;;;20.63;;
37777;SDS011;23615;51.506;7.678;2024-01-11T11:08:21;32.33;;;21.77;;
37777;SDS011;23615;51.506;7.678;2024-01-11T11:10:48;29.20;;;19.63;;
37777;SDS011;23615;51.506;7.678;2024-01-11T11:13:16;28.10;;;19.90;;
37777;SDS011;23615;51.506;7.678;2024-01-11T11:15:45;29.05;;;20.40;;
37777;SDS011;23615;51.506;7.678;2024-01-11T11:18:12;27.35;;;19.45;;
37777;SDS011;23615;51.506;7.678;2024-01-11T11:20:38;31.88;;;20.33;;
37777;SDS011;23615;51.506;7.678;2024-01-11T11:23:07;28.60;;;20.38;;
37777;SDS011;23615;51.506;7.678;2024-01-11T11:25:34;33.47;;;22.30;;
37777;SDS011;23615;51.506;7.678;2024-01-11T11:27:59;32.73;;;22.43;;
37777;SDS011;23615;51.506;7.678;2024-01-11T11:30:31;33.23;;;21.53;;
37777;SDS011;23615;51.506;7.678;2024-01-11T11:35:59;30.45;;;21.83;;
37777;SDS011;23615;51.506;7.678;2024-01-11T11:38:26;35.50;;;25.08;;
37777;SDS011;23615;51.506;7.678;2024-01-11T11:40:59;35.60;;;23.85;;
37777;SDS011;23615;51.506;7.678;2024-01-11T11:43:26;33.72;;;23.38;;
37777;SDS011;23615;51.506;7.678;2024-01-11T11:45:52;31.50;;;20.77;;
37777;SDS011;23615;51.506;7.678;2024-01-11T11:53:34;31.27;;;21.50;;
37777;SDS011;23615;51.506;7.678;2024-01-11T11:56:01;35.40;;;22.75;;
37777;SDS011;23615;51.506;7.678;2024-01-11T11:58:27;34.95;;;22.63;;
37777;SDS011;23615;51.506;7.678;2024-01-11T12:00:55;39.63;;;24.73;;
37777;SDS011;23615;51.506;7.678;2024-01-11T12:03:28;36.85;;;23.50;;
37777;SDS011;23615;51.506;7.678;2024-01-11T12:05:55;35.27;;;23.20;;
37777;SDS011;23615;51.506;7.678;2024-01-11T12:08:21;32.17;;;21.35;;
37777;SDS011;23615;51.506;7.678;2024-01-11T12:10:47;37.60;;;23.67;;
37777;SDS011;23615;51.506;7.678;2024-01-11T12:13:12;34.38;;;23.08;;
37777;SDS011;23615;51.506;7.678;2024-01-11T12:15:38;38.63;;;23.53;;
37777;SDS011;23615;51.506;7.678;2024-01-11T12:18:03;31.60;;;22.33;;
37777;SDS011;23615;51.506;7.678;2024-01-11T12:20:29;36.63;;;23.27;;
37777;SDS011;23615;51.506;7.678;2024-01-11T12:22:54;39.10;;;25.97;;
37777;SDS011;23615;51.506;7.678;2024-01-11T12:25:20;41.03;;;27.30;;
37777;SDS011;23615;51.506;7.678;2024-01-11T12:27:46;39.13;;;25.83;;
37777;SDS011;23615;51.506;7.678;2024-01-11T12:30:12;40.22;;;27.83;;
37777;SDS011;23615;51.506;7.678;2024-01-11T12:32:41;42.03;;;26.83;;
37777;SDS011;23615;51.506;7.678;2024-01-11T12:35:07;38.73;;;25.40;;
37777;SDS011;23615;51.506;7.678;2024-01-11T12:37:33;37.08;;;25.42;;
37777;SDS011;23615;51.506;7.678;2024-01-11T12:39:58;36.70;;;24.47;;
37777;SDS011;23615;51.506;7.678;2024-01-11T12:42:24;37.37;;;24.30;;
37777;SDS011;23615;51.506;7.678;2024-01-11T12:44:50;32.28;;;22.58;;
37777;SDS011;23615;51.506;7.678;2024-01-11T12:47:16;32.33;;;21.27;;
37777;SDS011;23615;51.506;7.678;2024-01-11T12:49:43;31.80;;;21.13;;
37777;SDS011;23615;51.506;7.678;2024-01-11T12:52:20;32.03;;;22.02;;
37777;SDS011;23615;51.506;7.678;2024-01-11T12:54:45;28.13;;;19.35;;
37777;SDS011;23615;51.506;7.678;2024-01-11T12:57:17;28.83;;;19.47;;
37777;SDS011;23615;51.506;7.678;2024-01-11T12:59:44;27.58;;;18.10;;
37777;SDS011;23615;51.506;7.678;2024-01-11T13:02:10;29.37;;;20.33;;
37777;SDS011;23615;51.506;7.678;2024-01-11T13:04:38;27.23;;;18.93;;
37777;SDS011;23615;51.506;7.678;2024-01-11T13:07:04;25.13;;;17.45;;
37777;SDS011;23615;51.506;7.678;2024-01-11T13:09:29;32.07;;;21.10;;
37777;SDS011;23615;51.506;7.678;2024-01-11T13:11:54;28.33;;;19.83;;
37777;SDS011;23615;51.506;7.678;2024-01-11T13:14:20;25.73;;;18.60;;
37777;SDS011;23615;51.506;7.678;2024-01-11T13:16:45;23.93;;;17.57;;
37777;SDS011;23615;51.506;7.678;2024-01-11T13:19:11;31.13;;;20.33;;
37777;SDS011;23615;51.506;7.678;2024-01-11T13:21:36;31.20;;;20.10;;
37777;SDS011;23615;51.506;7.678;2024-01-11T13:24:02;26.67;;;19.13;;
37777;SDS011;23615;51.506;7.678;2024-01-11T13:26:28;28.70;;;19.48;;
37777;SDS011;23615;51.506;7.678;2024-01-11T13:28:53;26.57;;;18.17;;
37777;SDS011;23615;51.506;7.678;2024-01-11T13:31:19;25.50;;;17.50;;
37777;SDS011;23615;51.506;7.678;2024-01-11T13:33:45;25.93;;;17.93;;
37777;SDS011;23615;51.506;7.678;2024-01-11T13:36:11;26.35;;;18.75;;
37777;SDS011;23615;51.506;7.678;2024-01-11T13:38:36;23.35;;;15.98;;
37777;SDS011;23615;51.506;7.678;2024-01-11T13:41:01;22.17;;;15.73;;
37777;SDS011;23615;51.506;7.678;2024-01-11T13:43:27;28.67;;;18.30;;
37777;SDS011;23615;51.506;7.678;2024-01-11T13:45:53;22.73;;;16.80;;
37777;SDS011;23615;51.506;7.678;2024-01-11T13:48:19;26.08;;;17.38;;
37777;SDS011;23615;51.506;7.678;2024-01-11T13:50:44;27.15;;;18.27;;
37777;SDS011;23615;51.506;7.678;2024-01-11T13:53:10;25.73;;;17.70;;
37777;SDS011;23615;51.506;7.678;2024-01-11T13:55:35;24.47;;;16.27;;
37777;SDS011;23615;51.506;7.678;2024-01-11T13:58:04;22.57;;;16.50;;
37777;SDS011;23615;51.506;7.678;2024-01-11T14:00:30;25.30;;;15.27;;
37777;SDS011;23615;51.506;7.678;2024-01-11T14:02:55;20.90;;;14.30;;
37777;SDS011;23615;51.506;7.678;2024-01-11T14:05:21;18.30;;;12.00;;
37777;SDS011;23615;51.506;7.678;2024-01-11T14:07:46;19.20;;;12.87;;
37777;SDS011;23615;51.506;7.678;2024-01-11T14:10:13;17.77;;;12.97;;
37777;SDS011;23615;51.506;7.678;2024-01-11T14:12:40;21.03;;;14.50;;
37777;SDS011;23615;51.506;7.678;2024-01-11T14:15:06;21.13;;;13.73;;
37777;SDS011;23615;51.506;7.678;2024-01-11T14:17:36;21.38;;;14.27;;
37777;SDS011;23615;51.506;7.678;2024-01-11T14:20:02;16.92;;;11.93;;
37777;SDS011;23615;51.506;7.678;2024-01-11T14:22:28;17.80;;;11.15;;
37777;SDS011;23615;51.506;7.678;2024-01-11T14:24:53;16.23;;;11.13;;